createdAt,value
2022-11-24T00:00:31.135Z,79.60
2022-11-24T00:02:58.039Z,79.91
2022-11-24T00:05:24.718Z,80.26
2022-11-24T00:07:51.466Z,80.74
2022-11-24T00:10:18.367Z,80.71
2022-11-24T00:12:45.048Z,80.95
2022-11-24T00:15:11.616Z,80.70
2022-11-24T00:17:41.605Z,81.74
2022-11-24T00:20:08.956Z,81.20
2022-11-24T00:22:35.591Z,80.70
2022-11-24T00:25:02.415Z,81.26
2022-11-24T00:27:29.103Z,80.83
2022-11-24T00:29:55.697Z,81.20
2022-11-24T00:32:22.538Z,80.90
2022-11-24T00:34:49.133Z,81.27
2022-11-24T00:37:15.769Z,81.23
2022-11-24T00:39:42.454Z,80.81
2022-11-24T00:42:09.160Z,80.74
2022-11-24T00:44:35.827Z,81.63
2022-11-24T00:47:02.665Z,82.16
2022-11-24T00:49:29.339Z,82.90
2022-11-24T00:51:55.995Z,82.77
2022-11-24T00:54:22.626Z,83.10
2022-11-24T00:56:49.479Z,83.73
2022-11-24T00:59:16.051Z,84.90
2022-11-24T01:01:42.824Z,84.15
2022-11-24T01:04:09.549Z,84.37
2022-11-24T01:06:36.722Z,83.56
2022-11-24T01:09:03.835Z,82.92
2022-11-24T01:11:33.800Z,83.63
2022-11-24T01:14:00.418Z,82.97
2022-11-24T01:16:33.215Z,82.95
2022-11-24T01:19:00.833Z,82.68
2022-11-24T01:21:27.562Z,83.23
2022-11-24T01:23:54.519Z,83.17
2022-11-24T01:26:22.671Z,82.97
2022-11-24T01:28:56.905Z,83.20
2022-11-24T01:31:24.818Z,82.92
2022-11-24T01:33:51.739Z,83.52
2022-11-24T01:36:18.868Z,83.83
2022-11-24T01:38:45.963Z,83.88
2022-11-24T01:41:15.028Z,83.80
2022-11-24T01:43:42.854Z,83.42
2022-11-24T01:46:41.823Z,84.75
2022-11-24T01:49:08.459Z,84.43
2022-11-24T01:51:40.217Z,84.54
2022-11-24T01:54:14.943Z,84.16
2022-11-24T01:56:45.316Z,84.03
2022-11-24T01:59:14.751Z,83.92
2022-11-24T02:01:41.840Z,85.14
2022-11-24T02:04:15.191Z,85.36
2022-11-24T02:06:45.226Z,87.00
2022-11-24T02:09:19.697Z,87.99
2022-11-24T02:11:47.358Z,87.06
2022-11-24T02:14:17.947Z,85.95
2022-11-24T02:16:49.574Z,86.74
2022-11-24T02:19:37.581Z,86.47
2022-11-24T02:22:04.662Z,84.99
2022-11-24T02:24:45.361Z,85.81
2022-11-24T02:27:12.350Z,85.14
2022-11-24T02:29:40.043Z,84.50
2022-11-24T02:32:09.246Z,84.40
2022-11-24T02:34:36.100Z,83.56
2022-11-24T02:37:02.938Z,82.63
2022-11-24T02:39:29.541Z,83.26
2022-11-24T02:42:01.501Z,83.12
2022-11-24T02:44:32.283Z,82.35
2022-11-24T02:47:11.019Z,82.36
2022-11-24T02:49:37.832Z,82.19
2022-11-24T02:52:05.175Z,81.60
2022-11-24T02:54:32.470Z,82.50
2022-11-24T02:56:59.881Z,83.52
2022-11-24T02:59:26.722Z,83.41
2022-11-24T03:01:53.426Z,83.37
2022-11-24T03:04:20.157Z,82.99
2022-11-24T03:06:46.754Z,83.25
2022-11-24T03:09:13.534Z,83.57
2022-11-24T03:11:40.354Z,82.82
2022-11-24T03:14:07.389Z,82.55
2022-11-24T03:16:34.392Z,82.53
2022-11-24T03:19:01.178Z,81.64
2022-11-24T03:21:28.164Z,82.20
2022-11-24T03:23:54.866Z,82.23
2022-11-24T03:26:23.439Z,82.07
2022-11-24T03:28:52.695Z,82.65
2022-11-24T03:31:19.408Z,82.43
2022-11-24T03:33:46.138Z,82.79
2022-11-24T03:36:12.963Z,83.06
2022-11-24T03:38:39.929Z,82.75
2022-11-24T03:41:06.557Z,82.88
2022-11-24T03:43:33.203Z,83.44
2022-11-24T03:46:00.202Z,82.74
2022-11-24T03:48:27.018Z,81.93
2022-11-24T03:51:02.749Z,82.05
2022-11-24T03:53:31.550Z,81.72
2022-11-24T03:55:58.185Z,81.51
2022-11-24T03:58:24.927Z,81.88
2022-11-24T04:00:52.987Z,82.71
2022-11-24T04:03:19.849Z,84.21
2022-11-24T04:05:46.998Z,83.60
2022-11-24T04:08:14.599Z,82.81
2022-11-24T04:10:41.813Z,81.95
2022-11-24T04:13:14.820Z,81.48
2022-11-24T04:15:43.067Z,81.60
2022-11-24T04:18:11.650Z,80.74
2022-11-24T04:20:39.050Z,80.80
2022-11-24T04:23:06.047Z,80.89
2022-11-24T04:25:33.091Z,80.81
2022-11-24T04:27:59.843Z,80.44
2022-11-24T04:30:27.812Z,79.76
2022-11-24T04:32:54.474Z,79.90
2022-11-24T04:35:21.615Z,79.92
2022-11-24T04:37:48.376Z,79.74
2022-11-24T04:40:15.563Z,80.35
2022-11-24T04:42:42.493Z,80.19
2022-11-24T04:45:10.839Z,79.97
2022-11-24T04:47:37.579Z,79.98
2022-11-24T04:50:04.917Z,80.51
2022-11-24T04:52:31.505Z,80.57
2022-11-24T04:54:58.156Z,80.49
2022-11-24T04:57:26.309Z,80.41
2022-11-24T04:59:54.060Z,81.44
2022-11-24T05:02:20.795Z,80.85
2022-11-24T05:04:48.083Z,80.37
2022-11-24T05:07:18.808Z,80.44
2022-11-24T05:09:58.973Z,80.48
2022-11-24T05:12:27.664Z,80.46
2022-11-24T05:14:54.220Z,81.07
2022-11-24T05:17:20.947Z,80.88
2022-11-24T05:19:47.597Z,81.53
2022-11-24T05:22:14.218Z,81.53
2022-11-24T05:24:42.111Z,81.29
2022-11-24T05:27:11.174Z,81.00
2022-11-24T05:29:37.769Z,81.74
2022-11-24T05:32:04.808Z,82.73
2022-11-24T05:34:31.600Z,82.25
2022-11-24T05:36:58.951Z,82.60
2022-11-24T05:39:25.547Z,81.79
2022-11-24T05:41:52.601Z,82.96
2022-11-24T05:44:19.188Z,81.95
2022-11-24T05:46:45.956Z,81.25
2022-11-24T05:49:12.684Z,81.00
2022-11-24T05:51:39.398Z,81.13
2022-11-24T05:54:06.021Z,80.50
2022-11-24T05:56:32.865Z,80.50
2022-11-24T05:58:59.438Z,79.87
2022-11-24T06:01:26.232Z,80.29
2022-11-24T06:03:52.883Z,82.04
2022-11-24T06:06:19.574Z,81.37
2022-11-24T06:08:46.175Z,82.28
2022-11-24T06:11:12.854Z,81.86
2022-11-24T06:13:41.802Z,81.14
2022-11-24T06:16:08.666Z,80.44
2022-11-24T06:18:35.415Z,79.61
2022-11-24T06:21:12.843Z,80.96
2022-11-24T06:23:40.267Z,81.46
2022-11-24T06:26:07.027Z,81.56
2022-11-24T06:28:33.658Z,81.84
2022-11-24T06:31:01.913Z,82.11
2022-11-24T06:33:36.257Z,81.93
2022-11-24T06:36:07.983Z,82.02
2022-11-24T06:38:35.967Z,82.03
2022-11-24T06:41:11.468Z,81.64
2022-11-24T06:43:38.214Z,81.40
2022-11-24T06:46:05.191Z,82.90
2022-11-24T06:48:32.712Z,82.59
2022-11-24T06:51:01.134Z,82.78
2022-11-24T06:53:31.624Z,81.67
2022-11-24T06:56:02.538Z,81.23
2022-11-24T06:58:29.180Z,81.06
2022-11-24T07:00:55.844Z,80.70
2022-11-24T07:03:22.650Z,80.43
2022-11-24T07:05:49.306Z,80.58
2022-11-24T07:08:18.018Z,81.07
2022-11-24T07:10:44.951Z,82.38
2022-11-24T07:13:11.761Z,82.30
2022-11-24T07:15:38.351Z,82.81
2022-11-24T07:18:05.137Z,82.56
2022-11-24T07:20:31.751Z,82.16
2022-11-24T07:22:59.254Z,82.56
2022-11-24T07:25:26.231Z,83.00
2022-11-24T07:27:57.370Z,82.69
2022-11-24T07:30:25.001Z,82.32
2022-11-24T07:32:52.132Z,82.24
2022-11-24T07:35:18.793Z,82.13
2022-11-24T07:37:45.387Z,81.71
2022-11-24T07:40:12.381Z,82.58
2022-11-24T07:42:38.941Z,82.20
2022-11-24T07:45:06.100Z,81.49
2022-11-24T07:47:33.054Z,81.26
2022-11-24T07:49:59.643Z,81.53
2022-11-24T07:52:26.211Z,81.33
2022-11-24T07:54:52.930Z,81.53
2022-11-24T07:57:19.485Z,80.47
2022-11-24T07:59:46.137Z,81.14
2022-11-24T08:02:13.457Z,80.94
2022-11-24T08:04:40.205Z,81.70
2022-11-24T08:07:06.885Z,81.84
2022-11-24T08:09:34.023Z,81.97
2022-11-24T08:12:00.604Z,81.76
2022-11-24T08:14:27.348Z,82.18
2022-11-24T08:16:54.099Z,81.70
2022-11-24T08:19:22.198Z,81.78
2022-11-24T08:21:48.790Z,81.90
2022-11-24T08:24:15.638Z,81.93
2022-11-24T08:26:42.626Z,82.88
2022-11-24T08:29:10.005Z,82.36
2022-11-24T08:31:38.916Z,82.43
2022-11-24T08:34:06.429Z,82.63
2022-11-24T08:36:34.099Z,82.56
2022-11-24T08:39:01.124Z,82.14
2022-11-24T08:41:28.409Z,80.83
2022-11-24T08:43:55.569Z,81.44
2022-11-24T08:46:22.457Z,81.04
2022-11-24T08:48:50.382Z,81.55
2022-11-24T08:51:20.367Z,81.58
2022-11-24T08:53:47.418Z,80.96
2022-11-24T08:56:14.266Z,81.40
2022-11-24T08:58:41.561Z,81.60
2022-11-24T09:01:11.652Z,80.93
2022-11-24T09:03:39.713Z,81.11
2022-11-24T09:06:09.922Z,80.73
2022-11-24T09:08:37.561Z,80.57
2022-11-24T09:11:13.243Z,80.94
2022-11-24T09:13:40.693Z,81.68
2022-11-24T09:16:16.031Z,81.73
2022-11-24T09:18:43.887Z,81.75
2022-11-24T09:21:12.609Z,80.51
2022-11-24T09:23:40.132Z,81.13
2022-11-24T09:26:10.359Z,81.51
2022-11-24T09:28:37.285Z,81.70
2022-11-24T09:31:05.841Z,81.04
2022-11-24T09:33:34.150Z,80.64
2022-11-24T09:36:01.294Z,80.51
2022-11-24T09:38:29.789Z,81.01
2022-11-24T09:41:11.292Z,81.71
2022-11-24T09:43:44.743Z,81.45
2022-11-24T09:46:23.185Z,81.61
2022-11-24T09:48:54.180Z,81.05
2022-11-24T09:51:25.978Z,80.29
2022-11-24T09:54:06.270Z,79.70
2022-11-24T09:56:38.294Z,78.82
2022-11-24T09:59:10.735Z,79.23
2022-11-24T10:01:41.890Z,80.55
2022-11-24T10:04:46.784Z,80.17
2022-11-24T10:07:43.447Z,79.53
2022-11-24T10:10:15.758Z,79.95
2022-11-24T10:13:05.462Z,79.58
2022-11-24T10:15:34.949Z,78.89
2022-11-24T10:18:28.246Z,79.31
2022-11-24T10:21:09.303Z,80.12
2022-11-24T10:24:03.965Z,79.33
2022-11-24T10:26:39.520Z,79.40
2022-11-24T10:29:30.798Z,79.87
2022-11-24T10:31:57.830Z,79.21
2022-11-24T10:34:33.844Z,78.86
2022-11-24T10:37:06.597Z,78.32
2022-11-24T10:39:45.543Z,78.55
2022-11-24T10:42:23.707Z,79.14
2022-11-24T10:45:00.392Z,78.68
2022-11-24T10:47:27.677Z,78.70
2022-11-24T10:50:04.906Z,78.36
2022-11-24T10:52:44.000Z,78.41
2022-11-24T10:55:11.107Z,78.45
2022-11-24T10:57:40.135Z,77.93
2022-11-24T11:00:19.380Z,78.85
2022-11-24T11:02:48.222Z,78.22
2022-11-24T11:05:32.938Z,78.66
2022-11-24T11:08:14.533Z,77.63
2022-11-24T11:10:43.231Z,78.25
2022-11-24T11:13:30.156Z,79.16
2022-11-24T11:15:58.801Z,78.56
2022-11-24T11:18:33.067Z,78.72
2022-11-24T11:21:02.372Z,79.11
2022-11-24T11:23:40.094Z,78.38
2022-11-24T11:26:25.249Z,78.14
2022-11-24T11:35:03.136Z,76.17
2022-11-24T11:37:32.895Z,75.79
2022-11-24T11:40:00.348Z,74.87
2022-11-24T11:43:00.805Z,74.97
2022-11-24T11:45:36.229Z,75.67
2022-11-24T11:48:20.775Z,77.25
2022-11-24T11:54:01.910Z,76.16
2022-11-24T11:56:32.992Z,76.05
2022-11-24T11:59:18.324Z,76.39
2022-11-24T12:02:06.030Z,76.62
2022-11-24T12:04:35.746Z,75.76
2022-11-24T12:07:14.566Z,77.51
2022-11-24T12:09:51.743Z,76.99
2022-11-24T12:12:43.306Z,77.89
2022-11-24T12:15:31.759Z,78.52
2022-11-24T12:18:26.766Z,77.80
2022-11-24T12:21:17.956Z,77.47
2022-11-24T12:24:12.980Z,76.07
2022-11-24T12:26:58.165Z,76.07
2022-11-24T12:30:09.810Z,75.70
2022-11-24T12:32:39.320Z,76.55
2022-11-24T12:35:05.900Z,76.66
2022-11-24T12:37:47.554Z,77.98
2022-11-24T12:40:18.835Z,76.82
2022-11-24T12:43:04.163Z,76.42
2022-11-24T12:45:36.951Z,75.81
2022-11-24T12:48:12.521Z,76.16
2022-11-24T12:50:42.324Z,76.59
2022-11-24T12:53:32.884Z,76.10
2022-11-24T12:56:14.328Z,75.17
2022-11-24T12:58:53.866Z,75.50
2022-11-24T13:01:39.203Z,75.99
2022-11-24T13:04:15.114Z,75.55
2022-11-24T13:06:51.837Z,75.68
2022-11-24T13:09:18.957Z,75.53
2022-11-24T13:12:05.923Z,74.81
2022-11-24T13:14:37.191Z,74.49
2022-11-24T13:17:42.010Z,74.32
2022-11-24T13:20:16.313Z,74.80
2022-11-24T13:22:47.055Z,74.13
2022-11-24T13:25:19.304Z,74.56
2022-11-24T13:27:48.829Z,75.40
2022-11-24T13:30:33.920Z,75.71
2022-11-24T13:33:16.614Z,75.70
2022-11-24T13:36:01.839Z,75.00
2022-11-24T13:38:43.583Z,74.66
2022-11-24T13:41:32.018Z,74.45
2022-11-24T13:44:14.001Z,73.52
2022-11-24T13:47:05.803Z,73.20
2022-11-24T13:49:44.550Z,73.43
2022-11-24T13:52:35.827Z,72.51
2022-11-24T13:55:25.076Z,72.80
2022-11-24T13:57:56.598Z,73.12
2022-11-24T14:00:33.605Z,73.71
2022-11-24T14:03:55.345Z,72.56
2022-11-24T14:06:43.733Z,72.74
2022-11-24T14:09:25.546Z,72.88
2022-11-24T14:12:23.740Z,72.82
2022-11-24T14:15:12.634Z,72.44
2022-11-24T14:17:39.277Z,72.75
2022-11-24T14:20:22.076Z,72.47
2022-11-24T14:22:48.871Z,71.56
2022-11-24T14:25:29.191Z,71.45
2022-11-24T14:27:56.561Z,71.52
2022-11-24T14:30:24.912Z,72.44
2022-11-24T14:32:58.489Z,71.72
2022-11-24T14:35:29.712Z,72.75
2022-11-24T14:37:56.534Z,71.50
2022-11-24T14:40:42.590Z,71.45
2022-11-24T14:43:31.639Z,71.13
2022-11-24T14:46:10.021Z,70.93
2022-11-24T14:48:37.446Z,70.81
2022-11-24T14:51:18.344Z,70.77
2022-11-24T14:53:48.768Z,71.33
2022-11-24T14:56:25.832Z,71.39
2022-11-24T14:58:53.921Z,71.27
2022-11-24T15:01:26.417Z,72.24
2022-11-24T15:04:46.399Z,72.31
2022-11-24T15:07:17.022Z,71.81
2022-11-24T15:09:53.149Z,71.87
2022-11-24T15:12:31.568Z,71.79
2022-11-24T15:15:01.599Z,72.02
2022-11-24T15:17:29.655Z,71.87
2022-11-24T15:20:09.998Z,71.91
2022-11-24T15:22:42.302Z,72.40
2022-11-24T15:25:24.274Z,72.36
2022-11-24T15:27:51.622Z,72.18
2022-11-24T15:30:18.206Z,71.63
2022-11-24T15:32:58.776Z,71.60
2022-11-24T15:35:28.831Z,72.08
2022-11-24T15:37:55.402Z,71.77
2022-11-24T15:40:22.306Z,72.54
2022-11-24T15:42:54.428Z,72.82
2022-11-24T15:45:23.502Z,73.69
2022-11-24T15:47:50.242Z,73.23
2022-11-24T15:50:17.368Z,72.82
2022-11-24T15:52:45.197Z,72.54
2022-11-24T15:55:20.317Z,72.42
2022-11-24T15:57:47.660Z,72.16
2022-11-24T16:00:22.427Z,71.67
2022-11-24T16:02:50.028Z,71.57
2022-11-24T16:05:17.775Z,72.78
2022-11-24T16:07:44.870Z,73.87
2022-11-24T16:10:24.659Z,73.54
2022-11-24T16:12:51.399Z,73.91
2022-11-24T16:15:18.127Z,74.15
2022-11-24T16:17:45.147Z,75.56
2022-11-24T16:20:12.410Z,75.66
2022-11-24T16:22:39.131Z,75.61
2022-11-24T16:25:06.212Z,76.40
2022-11-24T16:27:32.948Z,76.88
2022-11-24T16:29:59.514Z,76.05
2022-11-24T16:35:16.729Z,76.66
2022-11-24T16:37:43.287Z,76.93
2022-11-24T16:40:10.360Z,76.36
2022-11-24T16:42:37.012Z,76.66
2022-11-24T16:45:03.976Z,75.94
2022-11-24T16:47:30.581Z,74.90
2022-11-24T16:49:57.401Z,74.40
2022-11-24T16:52:23.978Z,74.73
2022-11-24T16:54:50.643Z,74.64
2022-11-24T16:57:17.338Z,74.55
2022-11-24T16:59:44.036Z,74.97
2022-11-24T17:02:12.729Z,74.42
2022-11-24T17:04:39.778Z,74.53
2022-11-24T17:07:06.604Z,73.85
2022-11-24T17:09:38.892Z,73.40
2022-11-24T17:12:07.361Z,73.64
2022-11-24T17:14:34.276Z,74.07
2022-11-24T17:17:01.323Z,75.51
2022-11-24T17:19:28.324Z,75.23
2022-11-24T17:21:55.130Z,74.59
2022-11-24T17:24:21.746Z,74.81
2022-11-24T17:26:50.393Z,75.02
2022-11-24T17:29:17.724Z,76.68
2022-11-24T17:31:44.731Z,78.89
2022-11-24T17:34:12.282Z,78.59
2022-11-24T17:36:39.349Z,77.98
2022-11-24T17:39:06.615Z,78.00
2022-11-24T17:41:34.128Z,77.40
2022-11-24T17:44:01.021Z,77.68
2022-11-24T17:46:29.715Z,77.29
2022-11-24T17:48:57.979Z,78.33
2022-11-24T17:51:26.782Z,78.67
2022-11-24T17:53:54.798Z,78.49
2022-11-24T17:56:24.190Z,77.91
2022-11-24T17:58:55.739Z,77.23
2022-11-24T18:01:23.311Z,76.88
2022-11-24T18:03:53.504Z,76.01
2022-11-24T18:06:21.321Z,75.69
2022-11-24T18:08:47.918Z,74.94
2022-11-24T18:11:17.439Z,73.93
2022-11-24T18:13:58.546Z,74.16
2022-11-24T18:16:28.237Z,74.03
2022-11-24T18:19:07.370Z,73.24
2022-11-24T18:21:35.153Z,73.71
2022-11-24T18:24:01.882Z,74.03
2022-11-24T18:26:31.152Z,73.88
2022-11-24T18:28:57.855Z,74.07
2022-11-24T18:31:24.893Z,74.25
2022-11-24T18:33:52.700Z,74.90
2022-11-24T18:36:20.240Z,75.63
2022-11-24T18:38:46.827Z,75.43
2022-11-24T18:41:14.629Z,74.80
2022-11-24T18:43:41.817Z,74.89
2022-11-24T18:46:14.361Z,74.50
2022-11-24T18:48:42.568Z,74.11
2022-11-24T18:51:10.189Z,74.87
2022-11-24T18:53:36.800Z,74.24
2022-11-24T18:56:06.167Z,74.49
2022-11-24T18:58:35.894Z,73.80
2022-11-24T19:01:07.664Z,73.56
2022-11-24T19:03:37.667Z,73.71
2022-11-24T19:06:05.353Z,73.90
2022-11-24T19:08:33.888Z,73.24
2022-11-24T19:11:00.569Z,73.81
2022-11-24T19:13:27.350Z,73.37
2022-11-24T19:15:53.993Z,73.63
2022-11-24T19:18:22.102Z,73.74
2022-11-24T19:20:48.709Z,73.60
2022-11-24T19:23:16.062Z,73.39
2022-11-24T19:25:42.632Z,73.24
2022-11-24T19:28:12.011Z,73.29
2022-11-24T19:30:40.131Z,73.04
2022-11-24T19:33:08.358Z,72.81
2022-11-24T19:35:35.197Z,72.92
2022-11-24T19:38:02.632Z,72.72
2022-11-24T19:40:29.394Z,72.66
2022-11-24T19:42:56.051Z,72.43
2022-11-24T19:45:22.970Z,73.06
2022-11-24T19:47:49.857Z,73.10
2022-11-24T19:50:16.520Z,72.79
2022-11-24T19:52:43.231Z,72.87
2022-11-24T19:55:09.882Z,73.19
2022-11-24T19:57:36.521Z,73.51
2022-11-24T20:00:03.752Z,73.23
2022-11-24T20:02:30.901Z,72.94
2022-11-24T20:04:57.505Z,73.21
2022-11-24T20:07:24.273Z,73.12
2022-11-24T20:09:51.181Z,72.85
2022-11-24T20:12:17.926Z,72.95
2022-11-24T20:14:47.001Z,72.18
2022-11-24T20:17:14.194Z,73.28
2022-11-24T20:19:40.778Z,73.21
2022-11-24T20:22:07.543Z,73.54
2022-11-24T20:24:34.533Z,73.49
2022-11-24T20:27:01.590Z,73.47
2022-11-24T20:29:28.285Z,73.97
2022-11-24T20:31:57.109Z,73.02
2022-11-24T20:34:26.971Z,73.45
2022-11-24T20:36:53.887Z,72.62
2022-11-24T20:39:23.368Z,73.36
2022-11-24T20:41:50.085Z,73.01
2022-11-24T20:44:18.725Z,73.80
2022-11-24T20:46:46.174Z,73.72
2022-11-24T20:49:15.330Z,74.52
2022-11-24T20:51:42.983Z,74.20
2022-11-24T20:54:12.954Z,74.16
2022-11-24T20:56:42.656Z,74.34
2022-11-24T20:59:17.711Z,74.06
2022-11-24T21:01:46.300Z,74.41
2022-11-24T21:04:19.699Z,75.07
2022-11-24T21:06:47.162Z,74.61
2022-11-24T21:09:14.055Z,74.58
2022-11-24T21:11:41.291Z,74.48
2022-11-24T21:14:07.996Z,74.29
2022-11-24T21:16:38.068Z,73.83
2022-11-24T21:19:08.142Z,74.20
2022-11-24T21:21:37.099Z,74.46
2022-11-24T21:24:05.774Z,74.43
2022-11-24T21:26:35.555Z,74.49
2022-11-24T21:29:02.248Z,74.38
2022-11-24T21:31:28.990Z,74.79
2022-11-24T21:33:56.789Z,74.52
2022-11-24T21:36:25.793Z,74.71
2022-11-24T21:39:00.226Z,74.25
2022-11-24T21:41:28.811Z,74.59
2022-11-24T21:43:56.083Z,74.09
2022-11-24T21:46:23.715Z,74.15
2022-11-24T21:48:51.006Z,73.42
2022-11-24T21:51:19.833Z,73.71
2022-11-24T21:53:47.788Z,73.91
2022-11-24T21:56:24.301Z,74.18
2022-11-24T21:58:54.203Z,74.28
2022-11-24T22:01:23.092Z,74.53
2022-11-24T22:03:50.525Z,74.29
2022-11-24T22:06:18.748Z,73.98
2022-11-24T22:08:46.393Z,74.06
2022-11-24T22:11:16.064Z,74.31
2022-11-24T22:13:43.764Z,74.12
2022-11-24T22:16:12.935Z,73.52
2022-11-24T22:18:41.839Z,73.32
2022-11-24T22:21:14.854Z,73.86
2022-11-24T22:23:42.154Z,73.42
2022-11-24T22:26:13.678Z,73.42
2022-11-24T22:28:40.911Z,73.13
2022-11-24T22:31:10.510Z,73.74
2022-11-24T22:33:37.421Z,73.99
2022-11-24T22:36:04.360Z,73.87
2022-11-24T22:38:32.704Z,74.07
2022-11-24T22:41:07.886Z,73.90
2022-11-24T22:43:38.425Z,74.39
2022-11-24T22:46:10.263Z,73.92
2022-11-24T22:48:37.579Z,73.93
2022-11-24T22:51:09.551Z,73.82
2022-11-24T22:53:37.561Z,73.82
2022-11-24T22:56:06.509Z,73.78
2022-11-24T22:58:33.576Z,73.79
2022-11-24T23:01:10.138Z,74.47
2022-11-24T23:03:38.004Z,74.67
2022-11-24T23:06:09.749Z,74.33
2022-11-24T23:08:36.592Z,74.29
2022-11-24T23:11:06.338Z,74.23
2022-11-24T23:13:33.440Z,74.18
2022-11-24T23:16:05.643Z,73.86
2022-11-24T23:18:33.165Z,74.01
2022-11-24T23:21:12.475Z,74.27
2022-11-24T23:23:39.908Z,74.19
2022-11-24T23:26:09.265Z,74.85
2022-11-24T23:28:36.859Z,74.53
2022-11-24T23:31:09.072Z,74.63
2022-11-24T23:33:36.187Z,74.62
2022-11-24T23:36:07.083Z,74.50
2022-11-24T23:38:33.820Z,74.91
2022-11-24T23:41:02.710Z,74.68
2022-11-24T23:43:29.442Z,74.78
2022-11-24T23:46:01.675Z,74.54
2022-11-24T23:48:28.413Z,74.36
2022-11-24T23:50:55.085Z,74.33
2022-11-24T23:53:21.738Z,74.50
2022-11-24T23:55:54.720Z,74.44
2022-11-24T23:58:22.455Z,74.74
